Bf Caroda — V2CV5 — position and weather

sailwx.info

Track history (hours):
 
Tides and Currents Weather Stations Pressure Air Temp Water Temp Dewpoint Dewpoint Depression Visibility Wind Speed Wind Dir Waves Ship Positions

Bf Caroda

Last reported at 2016-Sep-28 21:32 UTC. Time now 2016-Sep-28 23:57 UTC.
Position N 44°24' E 008°54'.

Length 134 m; draft 6.7 m.

Type: Ship (hazmat cat A). MMSI: 304678000.

Date/timePositionNaut miles runAvg speedWind from/ knotsBaromVisibWave heightAir tempDewpointWater temp
2016-Sep-28 21:32N 44°24' E 008°54'0 0.0
2016-Sep-28 19:31N 44°24' E 008°54'0 0.0
2016-Sep-28 16:33N 44°24' E 008°54'0 0.0
2016-Sep-28 15:29N 44°24' E 008°54'12 4.1
2016-Sep-28 12:34N 44°15' E 009°04'34 8.5
2016-Sep-28 08:31N 44°06' E 009°51'0 0.0
2016-Sep-28 03:32N 44°06' E 009°51'0 0.0
2016-Sep-28 02:32N 44°06' E 009°51'0 0.0
2016-Sep-28 01:25N 44°06' E 009°51'0 0.0
2016-Sep-27 23:28N 44°06' E 009°51'0 0.0
2016-Sep-27 19:32N 44°06' E 009°51'44 8.8
2016-Sep-27 14:33N 43°24' E 009°40'1615.5
2016-Sep-27 13:33N 43°08' E 009°37'  
2016-Sep-22 23:33N 37°03' E 003°32'  
Track history (hours):
 
Tides and Currents Weather Stations Pressure Air Temp Water Temp Dewpoint Dewpoint Depression Visibility Wind Speed Wind Dir Waves Ship Positions

Bf Caroda

Last reported at 2016-Sep-28 21:32 UTC. Time now 2016-Sep-28 23:57 UTC.
Position N 44°24' E 008°54'.

Length 134 m; draft 6.7 m.

Type: Ship (hazmat cat A). MMSI: 304678000.

Date/timePositionNaut miles runAvg speedWind from/ knotsBaromVisibWave heightAir tempDewpointWater temp
2016-Sep-28 21:32N 44°24' E 008°54'0 0.0
2016-Sep-28 19:31N 44°24' E 008°54'0 0.0
2016-Sep-28 16:33N 44°24' E 008°54'0 0.0
2016-Sep-28 15:29N 44°24' E 008°54'12 4.1
2016-Sep-28 12:34N 44°15' E 009°04'34 8.5
2016-Sep-28 08:31N 44°06' E 009°51'0 0.0
2016-Sep-28 03:32N 44°06' E 009°51'0 0.0
2016-Sep-28 02:32N 44°06' E 009°51'0 0.0
2016-Sep-28 01:25N 44°06' E 009°51'0 0.0
2016-Sep-27 23:28N 44°06' E 009°51'0 0.0
2016-Sep-27 19:32N 44°06' E 009°51'44 8.8
2016-Sep-27 14:33N 43°24' E 009°40'1615.5
2016-Sep-27 13:33N 43°08' E 009°37'  
2016-Sep-22 23:33N 37°03' E 003°32'  

Dump ship's entire track history